sensor_id;sensor_type;location;lat;lon;timestamp;P1;durP1;ratioP1;P2;durP2;ratioP2
33690;SDS011;20026;50.058;18.428;2023-07-08T00:01:12;13.23;;;6.88;;
33690;SDS011;20026;50.058;18.428;2023-07-08T00:03:39;9.70;;;7.32;;
33690;SDS011;20026;50.058;18.428;2023-07-08T00:06:07;11.13;;;7.05;;
33690;SDS011;20026;50.058;18.428;2023-07-08T00:08:33;13.77;;;7.22;;
33690;SDS011;20026;50.058;18.428;2023-07-08T00:10:59;10.32;;;7.10;;
33690;SDS011;20026;50.058;18.428;2023-07-08T00:13:25;12.93;;;7.68;;
33690;SDS011;20026;50.058;18.428;2023-07-08T00:15:51;10.07;;;7.15;;
33690;SDS011;20026;50.058;18.428;2023-07-08T00:18:17;13.80;;;7.50;;
33690;SDS011;20026;50.058;18.428;2023-07-08T00:23:10;13.00;;;7.43;;
33690;SDS011;20026;50.058;18.428;2023-07-08T00:25:36;15.70;;;7.97;;
33690;SDS011;20026;50.058;18.428;2023-07-08T00:28:04;13.30;;;7.70;;
33690;SDS011;20026;50.058;18.428;2023-07-08T00:30:31;13.60;;;7.75;;
33690;SDS011;20026;50.058;18.428;2023-07-08T00:32:58;14.70;;;8.00;;
33690;SDS011;20026;50.058;18.428;2023-07-08T00:37:56;12.60;;;7.93;;
33690;SDS011;20026;50.058;18.428;2023-07-08T00:40:26;10.00;;;7.75;;
33690;SDS011;20026;50.058;18.428;2023-07-08T00:42:53;14.18;;;7.65;;
33690;SDS011;20026;50.058;18.428;2023-07-08T00:45:28;11.70;;;7.57;;
33690;SDS011;20026;50.058;18.428;2023-07-08T00:47:56;12.27;;;7.85;;
33690;SDS011;20026;50.058;18.428;2023-07-08T00:50:23;12.45;;;7.75;;
33690;SDS011;20026;50.058;18.428;2023-07-08T00:52:49;13.98;;;8.48;;
33690;SDS011;20026;50.058;18.428;2023-07-08T00:55:15;13.23;;;8.00;;
33690;SDS011;20026;50.058;18.428;2023-07-08T00:57:42;14.85;;;8.05;;
33690;SDS011;20026;50.058;18.428;2023-07-08T01:00:11;14.50;;;8.32;;
33690;SDS011;20026;50.058;18.428;2023-07-08T01:02:45;13.68;;;8.30;;
33690;SDS011;20026;50.058;18.428;2023-07-08T01:05:13;12.18;;;8.05;;
33690;SDS011;20026;50.058;18.428;2023-07-08T01:07:40;16.45;;;8.90;;
33690;SDS011;20026;50.058;18.428;2023-07-08T01:10:09;18.67;;;9.00;;
33690;SDS011;20026;50.058;18.428;2023-07-08T01:12:39;17.17;;;9.63;;
33690;SDS011;20026;50.058;18.428;2023-07-08T01:15:06;18.23;;;8.80;;
33690;SDS011;20026;50.058;18.428;2023-07-08T01:17:32;20.63;;;9.20;;
33690;SDS011;20026;50.058;18.428;2023-07-08T01:19:59;15.10;;;9.02;;
33690;SDS011;20026;50.058;18.428;2023-07-08T01:22:25;13.98;;;9.27;;
33690;SDS011;20026;50.058;18.428;2023-07-08T01:24:57;17.08;;;9.65;;
33690;SDS011;20026;50.058;18.428;2023-07-08T01:27:27;13.93;;;9.82;;
33690;SDS011;20026;50.058;18.428;2023-07-08T01:29:53;16.85;;;10.40;;
33690;SDS011;20026;50.058;18.428;2023-07-08T01:32:19;16.15;;;10.00;;
33690;SDS011;20026;50.058;18.428;2023-07-08T01:34:45;18.98;;;11.52;;
33690;SDS011;20026;50.058;18.428;2023-07-08T01:37:28;17.55;;;11.60;;
33690;SDS011;20026;50.058;18.428;2023-07-08T01:39:55;19.20;;;11.35;;
33690;SDS011;20026;50.058;18.428;2023-07-08T01:42:21;18.00;;;11.60;;
33690;SDS011;20026;50.058;18.428;2023-07-08T01:44:47;23.95;;;12.55;;
33690;SDS011;20026;50.058;18.428;2023-07-08T01:47:14;18.15;;;10.40;;
33690;SDS011;20026;50.058;18.428;2023-07-08T01:49:41;20.65;;;11.15;;
33690;SDS011;20026;50.058;18.428;2023-07-08T01:52:08;18.83;;;10.80;;
33690;SDS011;20026;50.058;18.428;2023-07-08T01:54:35;17.90;;;11.60;;
33690;SDS011;20026;50.058;18.428;2023-07-08T01:57:01;19.30;;;11.45;;
33690;SDS011;20026;50.058;18.428;2023-07-08T01:59:27;16.63;;;10.25;;
33690;SDS011;20026;50.058;18.428;2023-07-08T02:01:54;16.67;;;11.02;;
33690;SDS011;20026;50.058;18.428;2023-07-08T02:04:20;18.65;;;11.50;;
33690;SDS011;20026;50.058;18.428;2023-07-08T02:06:53;17.67;;;11.80;;
33690;SDS011;20026;50.058;18.428;2023-07-08T02:09:19;22.63;;;12.73;;
33690;SDS011;20026;50.058;18.428;2023-07-08T02:11:46;16.35;;;11.48;;
33690;SDS011;20026;50.058;18.428;2023-07-08T02:14:12;16.20;;;11.07;;
33690;SDS011;20026;50.058;18.428;2023-07-08T02:16:38;18.23;;;11.63;;
33690;SDS011;20026;50.058;18.428;2023-07-08T02:19:04;21.02;;;12.18;;
33690;SDS011;20026;50.058;18.428;2023-07-08T02:21:30;17.15;;;11.30;;
33690;SDS011;20026;50.058;18.428;2023-07-08T02:23:56;20.13;;;11.23;;
33690;SDS011;20026;50.058;18.428;2023-07-08T02:26:22;20.50;;;11.63;;
33690;SDS011;20026;50.058;18.428;2023-07-08T02:28:48;19.83;;;12.30;;
33690;SDS011;20026;50.058;18.428;2023-07-08T02:31:14;19.98;;;13.00;;
33690;SDS011;20026;50.058;18.428;2023-07-08T02:33:40;20.48;;;12.93;;
33690;SDS011;20026;50.058;18.428;2023-07-08T02:36:06;18.95;;;12.27;;
33690;SDS011;20026;50.058;18.428;2023-07-08T02:38:32;22.27;;;12.75;;
33690;SDS011;20026;50.058;18.428;2023-07-08T02:40:59;21.98;;;12.45;;
33690;SDS011;20026;50.058;18.428;2023-07-08T02:43:25;16.85;;;12.40;;
33690;SDS011;20026;50.058;18.428;2023-07-08T02:45:51;17.42;;;12.10;;
33690;SDS011;20026;50.058;18.428;2023-07-08T02:48:18;19.00;;;12.98;;
33690;SDS011;20026;50.058;18.428;2023-07-08T02:50:44;22.35;;;14.93;;
33690;SDS011;20026;50.058;18.428;2023-07-08T02:53:10;20.58;;;14.75;;
33690;SDS011;20026;50.058;18.428;2023-07-08T02:55:36;21.15;;;14.55;;
33690;SDS011;20026;50.058;18.428;2023-07-08T02:58:03;21.05;;;13.57;;
33690;SDS011;20026;50.058;18.428;2023-07-08T03:00:29;20.80;;;14.07;;
33690;SDS011;20026;50.058;18.428;2023-07-08T03:02:55;19.33;;;14.00;;
33690;SDS011;20026;50.058;18.428;2023-07-08T03:05:21;22.02;;;13.68;;
33690;SDS011;20026;50.058;18.428;2023-07-08T03:07:47;20.95;;;13.85;;
33690;SDS011;20026;50.058;18.428;2023-07-08T03:10:14;20.70;;;13.90;;
33690;SDS011;20026;50.058;18.428;2023-07-08T03:12:40;22.35;;;13.93;;
33690;SDS011;20026;50.058;18.428;2023-07-08T03:15:06;23.55;;;12.90;;
33690;SDS011;20026;50.058;18.428;2023-07-08T03:17:32;21.38;;;12.90;;
33690;SDS011;20026;50.058;18.428;2023-07-08T03:19:58;20.40;;;13.05;;
33690;SDS011;20026;50.058;18.428;2023-07-08T03:22:24;21.43;;;14.93;;
33690;SDS011;20026;50.058;18.428;2023-07-08T03:27:54;19.05;;;13.55;;
33690;SDS011;20026;50.058;18.428;2023-07-08T03:30:20;21.00;;;13.93;;
33690;SDS011;20026;50.058;18.428;2023-07-08T03:32:46;19.50;;;13.38;;
33690;SDS011;20026;50.058;18.428;2023-07-08T03:35:12;16.90;;;13.27;;
33690;SDS011;20026;50.058;18.428;2023-07-08T03:37:38;17.13;;;12.63;;
33690;SDS011;20026;50.058;18.428;2023-07-08T03:40:04;16.45;;;13.65;;
33690;SDS011;20026;50.058;18.428;2023-07-08T03:42:31;19.33;;;13.25;;
33690;SDS011;20026;50.058;18.428;2023-07-08T03:44:57;20.70;;;12.30;;
33690;SDS011;20026;50.058;18.428;2023-07-08T03:47:23;18.80;;;12.27;;
33690;SDS011;20026;50.058;18.428;2023-07-08T03:49:49;18.20;;;11.88;;
33690;SDS011;20026;50.058;18.428;2023-07-08T03:52:15;18.52;;;11.60;;
33690;SDS011;20026;50.058;18.428;2023-07-08T03:54:43;15.40;;;11.10;;
33690;SDS011;20026;50.058;18.428;2023-07-08T03:57:10;18.80;;;11.70;;
33690;SDS011;20026;50.058;18.428;2023-07-08T03:59:36;15.15;;;11.40;;
33690;SDS011;20026;50.058;18.428;2023-07-08T04:02:02;20.73;;;11.85;;
33690;SDS011;20026;50.058;18.428;2023-07-08T04:04:28;15.40;;;11.23;;
33690;SDS011;20026;50.058;18.428;2023-07-08T04:06:54;14.32;;;11.68;;
33690;SDS011;20026;50.058;18.428;2023-07-08T04:09:20;18.50;;;11.70;;
33690;SDS011;20026;50.058;18.428;2023-07-08T04:11:46;19.00;;;11.55;;
33690;SDS011;20026;50.058;18.428;2023-07-08T04:14:12;15.68;;;10.80;;
33690;SDS011;20026;50.058;18.428;2023-07-08T04:19:11;13.80;;;11.27;;
33690;SDS011;20026;50.058;18.428;2023-07-08T04:21:39;14.05;;;11.00;;
33690;SDS011;20026;50.058;18.428;2023-07-08T04:24:05;16.15;;;12.23;;
33690;SDS011;20026;50.058;18.428;2023-07-08T04:26:31;12.88;;;11.05;;
33690;SDS011;20026;50.058;18.428;2023-07-08T04:29:00;12.33;;;10.83;;
33690;SDS011;20026;50.058;18.428;2023-07-08T04:31:26;18.42;;;11.65;;
33690;SDS011;20026;50.058;18.428;2023-07-08T04:33:52;12.02;;;10.52;;
33690;SDS011;20026;50.058;18.428;2023-07-08T04:36:18;11.52;;;9.30;;
33690;SDS011;20026;50.058;18.428;2023-07-08T04:38:46;12.25;;;9.85;;
33690;SDS011;20026;50.058;18.428;2023-07-08T04:41:12;16.25;;;10.80;;
33690;SDS011;20026;50.058;18.428;2023-07-08T04:43:38;13.50;;;10.88;;
33690;SDS011;20026;50.058;18.428;2023-07-08T04:46:05;13.95;;;10.68;;
33690;SDS011;20026;50.058;18.428;2023-07-08T04:48:40;15.07;;;11.25;;
33690;SDS011;20026;50.058;18.428;2023-07-08T04:51:06;14.90;;;11.05;;
33690;SDS011;20026;50.058;18.428;2023-07-08T04:53:32;14.95;;;10.52;;
33690;SDS011;20026;50.058;18.428;2023-07-08T04:55:58;14.63;;;11.40;;
33690;SDS011;20026;50.058;18.428;2023-07-08T04:58:24;12.70;;;10.50;;
33690;SDS011;20026;50.058;18.428;2023-07-08T05:00:50;16.10;;;11.30;;
33690;SDS011;20026;50.058;18.428;2023-07-08T05:03:16;15.10;;;11.20;;
33690;SDS011;20026;50.058;18.428;2023-07-08T05:05:42;17.27;;;10.85;;
33690;SDS011;20026;50.058;18.428;2023-07-08T05:08:08;17.05;;;11.73;;
33690;SDS011;20026;50.058;18.428;2023-07-08T05:10:34;15.88;;;11.50;;
33690;SDS011;20026;50.058;18.428;2023-07-08T05:13:00;20.10;;;12.05;;
33690;SDS011;20026;50.058;18.428;2023-07-08T05:15:26;16.52;;;11.80;;
33690;SDS011;20026;50.058;18.428;2023-07-08T05:17:52;17.52;;;11.25;;
33690;SDS011;20026;50.058;18.428;2023-07-08T05:20:18;14.65;;;10.40;;
33690;SDS011;20026;50.058;18.428;2023-07-08T05:22:45;13.75;;;10.27;;
33690;SDS011;20026;50.058;18.428;2023-07-08T05:25:12;13.65;;;10.13;;
33690;SDS011;20026;50.058;18.428;2023-07-08T05:27:38;14.57;;;9.93;;
33690;SDS011;20026;50.058;18.428;2023-07-08T05:30:05;15.90;;;10.18;;
33690;SDS011;20026;50.058;18.428;2023-07-08T05:32:31;12.05;;;10.10;;
33690;SDS011;20026;50.058;18.428;2023-07-08T05:34:57;16.27;;;11.85;;
33690;SDS011;20026;50.058;18.428;2023-07-08T05:37:24;13.65;;;9.30;;
33690;SDS011;20026;50.058;18.428;2023-07-08T05:39:53;12.80;;;9.23;;
33690;SDS011;20026;50.058;18.428;2023-07-08T05:42:19;14.00;;;9.30;;
33690;SDS011;20026;50.058;18.428;2023-07-08T05:44:46;15.57;;;8.68;;
33690;SDS011;20026;50.058;18.428;2023-07-08T05:47:12;24.88;;;9.48;;
33690;SDS011;20026;50.058;18.428;2023-07-08T05:49:38;14.52;;;9.27;;
33690;SDS011;20026;50.058;18.428;2023-07-08T05:52:04;14.05;;;8.90;;
33690;SDS011;20026;50.058;18.428;2023-07-08T05:54:35;15.40;;;9.52;;
33690;SDS011;20026;50.058;18.428;2023-07-08T05:57:01;18.45;;;9.93;;
33690;SDS011;20026;50.058;18.428;2023-07-08T05:59:27;15.52;;;9.55;;
33690;SDS011;20026;50.058;18.428;2023-07-08T06:01:53;21.88;;;15.70;;
33690;SDS011;20026;50.058;18.428;2023-07-08T06:04:19;20.00;;;12.02;;
33690;SDS011;20026;50.058;18.428;2023-07-08T06:06:47;15.73;;;10.63;;
33690;SDS011;20026;50.058;18.428;2023-07-08T06:09:13;18.13;;;10.95;;
33690;SDS011;20026;50.058;18.428;2023-07-08T06:11:39;18.48;;;10.90;;
33690;SDS011;20026;50.058;18.428;2023-07-08T06:14:05;22.30;;;10.63;;
33690;SDS011;20026;50.058;18.428;2023-07-08T06:16:31;17.67;;;10.00;;
33690;SDS011;20026;50.058;18.428;2023-07-08T06:18:59;15.88;;;9.48;;
33690;SDS011;20026;50.058;18.428;2023-07-08T06:21:25;13.93;;;9.50;;
33690;SDS011;20026;50.058;18.428;2023-07-08T06:23:52;14.82;;;8.63;;
33690;SDS011;20026;50.058;18.428;2023-07-08T06:26:18;17.95;;;8.88;;
33690;SDS011;20026;50.058;18.428;2023-07-08T06:28:44;16.40;;;8.52;;
33690;SDS011;20026;50.058;18.428;2023-07-08T06:31:10;11.73;;;7.60;;
33690;SDS011;20026;50.058;18.428;2023-07-08T06:33:36;14.10;;;7.57;;
33690;SDS011;20026;50.058;18.428;2023-07-08T06:36:02;12.40;;;6.68;;
33690;SDS011;20026;50.058;18.428;2023-07-08T06:38:29;9.00;;;6.13;;
33690;SDS011;20026;50.058;18.428;2023-07-08T06:40:55;8.32;;;5.95;;
33690;SDS011;20026;50.058;18.428;2023-07-08T06:43:21;12.13;;;5.70;;
33690;SDS011;20026;50.058;18.428;2023-07-08T06:45:47;13.48;;;5.53;;
33690;SDS011;20026;50.058;18.428;2023-07-08T06:48:13;9.15;;;5.10;;
33690;SDS011;20026;50.058;18.428;2023-07-08T06:50:41;7.05;;;4.63;;
33690;SDS011;20026;50.058;18.428;2023-07-08T06:53:08;8.15;;;4.50;;
33690;SDS011;20026;50.058;18.428;2023-07-08T06:55:34;8.85;;;4.40;;
33690;SDS011;20026;50.058;18.428;2023-07-08T06:58:00;6.90;;;4.68;;
33690;SDS011;20026;50.058;18.428;2023-07-08T07:00:26;6.78;;;3.63;;
33690;SDS011;20026;50.058;18.428;2023-07-08T07:02:52;9.63;;;3.75;;
33690;SDS011;20026;50.058;18.428;2023-07-08T07:05:18;5.47;;;3.78;;
33690;SDS011;20026;50.058;18.428;2023-07-08T07:07:44;9.50;;;3.95;;
33690;SDS011;20026;50.058;18.428;2023-07-08T07:10:10;7.18;;;3.80;;
33690;SDS011;20026;50.058;18.428;2023-07-08T07:12:36;5.80;;;3.75;;
33690;SDS011;20026;50.058;18.428;2023-07-08T07:15:03;5.72;;;3.17;;
33690;SDS011;20026;50.058;18.428;2023-07-08T07:17:29;4.70;;;3.25;;
33690;SDS011;20026;50.058;18.428;2023-07-08T07:19:56;7.93;;;4.97;;
33690;SDS011;20026;50.058;18.428;2023-07-08T07:22:22;7.20;;;4.32;;
33690;SDS011;20026;50.058;18.428;2023-07-08T07:24:48;5.13;;;2.90;;
33690;SDS011;20026;50.058;18.428;2023-07-08T07:27:14;4.95;;;2.85;;
33690;SDS011;20026;50.058;18.428;2023-07-08T07:29:41;3.78;;;2.50;;
33690;SDS011;20026;50.058;18.428;2023-07-08T07:32:09;6.00;;;2.85;;
33690;SDS011;20026;50.058;18.428;2023-07-08T07:34:38;6.28;;;2.88;;
33690;SDS011;20026;50.058;18.428;2023-07-08T07:37:11;5.38;;;2.75;;
33690;SDS011;20026;50.058;18.428;2023-07-08T07:39:38;6.25;;;2.65;;
33690;SDS011;20026;50.058;18.428;2023-07-08T07:42:04;3.47;;;2.75;;
33690;SDS011;20026;50.058;18.428;2023-07-08T07:44:30;10.80;;;3.47;;
33690;SDS011;20026;50.058;18.428;2023-07-08T07:46:56;6.38;;;2.60;;
33690;SDS011;20026;50.058;18.428;2023-07-08T07:49:22;6.15;;;2.85;;
33690;SDS011;20026;50.058;18.428;2023-07-08T07:51:48;4.25;;;2.83;;
33690;SDS011;20026;50.058;18.428;2023-07-08T07:54:14;3.63;;;2.67;;
33690;SDS011;20026;50.058;18.428;2023-07-08T07:56:40;4.50;;;2.58;;
33690;SDS011;20026;50.058;18.428;2023-07-08T07:59:07;4.65;;;2.67;;
33690;SDS011;20026;50.058;18.428;2023-07-08T08:01:33;4.20;;;2.58;;
33690;SDS011;20026;50.058;18.428;2023-07-08T08:03:59;3.80;;;2.10;;
33690;SDS011;20026;50.058;18.428;2023-07-08T08:06:25;4.43;;;2.20;;
33690;SDS011;20026;50.058;18.428;2023-07-08T08:08:51;2.20;;;2.00;;
33690;SDS011;20026;50.058;18.428;2023-07-08T08:11:22;1.83;;;1.70;;
33690;SDS011;20026;50.058;18.428;2023-07-08T08:13:50;3.42;;;2.30;;
33690;SDS011;20026;50.058;18.428;2023-07-08T08:16:16;2.28;;;2.08;;
33690;SDS011;20026;50.058;18.428;2023-07-08T08:18:42;3.30;;;2.60;;
33690;SDS011;20026;50.058;18.428;2023-07-08T08:21:08;2.58;;;1.98;;
33690;SDS011;20026;50.058;18.428;2023-07-08T08:23:34;2.15;;;1.52;;
33690;SDS011;20026;50.058;18.428;2023-07-08T08:26:00;6.82;;;2.08;;
33690;SDS011;20026;50.058;18.428;2023-07-08T08:28:26;4.25;;;1.50;;
33690;SDS011;20026;50.058;18.428;2023-07-08T08:30:52;4.43;;;1.90;;
33690;SDS011;20026;50.058;18.428;2023-07-08T08:33:18;3.00;;;1.60;;
33690;SDS011;20026;50.058;18.428;2023-07-08T08:35:49;3.25;;;1.70;;
33690;SDS011;20026;50.058;18.428;2023-07-08T08:38:15;2.55;;;1.92;;
33690;SDS011;20026;50.058;18.428;2023-07-08T08:40:42;2.08;;;1.60;;
33690;SDS011;20026;50.058;18.428;2023-07-08T08:43:13;2.25;;;2.05;;
33690;SDS011;20026;50.058;18.428;2023-07-08T08:45:46;5.82;;;5.28;;
33690;SDS011;20026;50.058;18.428;2023-07-08T08:48:15;4.25;;;3.10;;
33690;SDS011;20026;50.058;18.428;2023-07-08T08:53:32;3.53;;;2.15;;
33690;SDS011;20026;50.058;18.428;2023-07-08T08:56:05;3.45;;;3.00;;
33690;SDS011;20026;50.058;18.428;2023-07-08T08:58:36;3.00;;;1.85;;
33690;SDS011;20026;50.058;18.428;2023-07-08T09:01:07;2.10;;;1.90;;
33690;SDS011;20026;50.058;18.428;2023-07-08T09:03:39;4.72;;;2.30;;
33690;SDS011;20026;50.058;18.428;2023-07-08T09:06:30;2.25;;;2.05;;
33690;SDS011;20026;50.058;18.428;2023-07-08T09:08:56;3.50;;;1.80;;
33690;SDS011;20026;50.058;18.428;2023-07-08T09:14:01;3.35;;;2.00;;
33690;SDS011;20026;50.058;18.428;2023-07-08T09:21:26;3.35;;;2.00;;
33690;SDS011;20026;50.058;18.428;2023-07-08T09:23:54;5.80;;;2.50;;
33690;SDS011;20026;50.058;18.428;2023-07-08T09:26:25;2.50;;;1.83;;
33690;SDS011;20026;50.058;18.428;2023-07-08T09:28:53;1.90;;;1.70;;
33690;SDS011;20026;50.058;18.428;2023-07-08T09:31:26;1.85;;;1.75;;
33690;SDS011;20026;50.058;18.428;2023-07-08T09:33:54;2.10;;;1.90;;
33690;SDS011;20026;50.058;18.428;2023-07-08T09:36:30;3.40;;;1.85;;
33690;SDS011;20026;50.058;18.428;2023-07-08T09:38:56;3.63;;;2.00;;
33690;SDS011;20026;50.058;18.428;2023-07-08T09:41:33;2.03;;;1.88;;
33690;SDS011;20026;50.058;18.428;2023-07-08T09:46:35;2.20;;;1.95;;
33690;SDS011;20026;50.058;18.428;2023-07-08T09:49:09;3.63;;;1.95;;
33690;SDS011;20026;50.058;18.428;2023-07-08T09:51:35;3.42;;;3.13;;
33690;SDS011;20026;50.058;18.428;2023-07-08T09:54:01;2.15;;;1.92;;
33690;SDS011;20026;50.058;18.428;2023-07-08T09:56:27;3.38;;;1.70;;
33690;SDS011;20026;50.058;18.428;2023-07-08T09:58:53;3.63;;;1.92;;
33690;SDS011;20026;50.058;18.428;2023-07-08T10:01:25;4.68;;;2.53;;
33690;SDS011;20026;50.058;18.428;2023-07-08T10:03:57;7.78;;;1.85;;
33690;SDS011;20026;50.058;18.428;2023-07-08T10:06:28;2.35;;;1.88;;
33690;SDS011;20026;50.058;18.428;2023-07-08T10:09:00;4.22;;;3.08;;
33690;SDS011;20026;50.058;18.428;2023-07-08T10:11:35;3.47;;;1.98;;
33690;SDS011;20026;50.058;18.428;2023-07-08T10:14:11;3.67;;;1.95;;
33690;SDS011;20026;50.058;18.428;2023-07-08T10:16:39;2.20;;;2.00;;
33690;SDS011;20026;50.058;18.428;2023-07-08T10:19:12;3.90;;;2.33;;
33690;SDS011;20026;50.058;18.428;2023-07-08T10:21:50;4.32;;;1.98;;
33690;SDS011;20026;50.058;18.428;2023-07-08T10:26:49;5.40;;;2.30;;
33690;SDS011;20026;50.058;18.428;2023-07-08T10:29:30;4.10;;;1.90;;
33690;SDS011;20026;50.058;18.428;2023-07-08T10:37:22;3.63;;;1.67;;
33690;SDS011;20026;50.058;18.428;2023-07-08T10:42:19;3.25;;;2.15;;
33690;SDS011;20026;50.058;18.428;2023-07-08T10:44:57;2.28;;;2.08;;
33690;SDS011;20026;50.058;18.428;2023-07-08T10:50:08;2.75;;;1.80;;
33690;SDS011;20026;50.058;18.428;2023-07-08T10:55:14;2.17;;;1.98;;
33690;SDS011;20026;50.058;18.428;2023-07-08T11:00:16;3.47;;;1.60;;
33690;SDS011;20026;50.058;18.428;2023-07-08T11:10:28;3.08;;;1.95;;
33690;SDS011;20026;50.058;18.428;2023-07-08T11:12:56;4.40;;;2.17;;
33690;SDS011;20026;50.058;18.428;2023-07-08T11:15:31;6.40;;;2.30;;
33690;SDS011;20026;50.058;18.428;2023-07-08T11:18:04;3.50;;;2.00;;
33690;SDS011;20026;50.058;18.428;2023-07-08T11:20:51;5.00;;;2.30;;
33690;SDS011;20026;50.058;18.428;2023-07-08T11:23:27;3.83;;;2.65;;
33690;SDS011;20026;50.058;18.428;2023-07-08T11:26:11;3.45;;;2.35;;
33690;SDS011;20026;50.058;18.428;2023-07-08T11:28:39;5.60;;;2.50;;
33690;SDS011;20026;50.058;18.428;2023-07-08T11:31:05;2.50;;;2.30;;
33690;SDS011;20026;50.058;18.428;2023-07-08T11:33:32;6.07;;;1.85;;
33690;SDS011;20026;50.058;18.428;2023-07-08T11:35:59;4.80;;;1.75;;
33690;SDS011;20026;50.058;18.428;2023-07-08T11:38:26;2.88;;;1.85;;
33690;SDS011;20026;50.058;18.428;2023-07-08T11:43:51;6.17;;;2.17;;
33690;SDS011;20026;50.058;18.428;2023-07-08T11:46:22;3.45;;;1.80;;
33690;SDS011;20026;50.058;18.428;2023-07-08T11:48:51;5.00;;;2.40;;
33690;SDS011;20026;50.058;18.428;2023-07-08T11:51:18;5.05;;;4.55;;
33690;SDS011;20026;50.058;18.428;2023-07-08T11:56:49;6.60;;;1.90;;
33690;SDS011;20026;50.058;18.428;2023-07-08T11:59:17;3.25;;;1.92;;
33690;SDS011;20026;50.058;18.428;2023-07-08T12:01:54;2.60;;;1.65;;
33690;SDS011;20026;50.058;18.428;2023-07-08T12:04:27;1.65;;;1.45;;
33690;SDS011;20026;50.058;18.428;2023-07-08T12:07:02;5.68;;;3.97;;
33690;SDS011;20026;50.058;18.428;2023-07-08T12:09:29;4.25;;;1.92;;
33690;SDS011;20026;50.058;18.428;2023-07-08T12:12:02;3.80;;;1.80;;
33690;SDS011;20026;50.058;18.428;2023-07-08T12:14:29;3.78;;;1.83;;
33690;SDS011;20026;50.058;18.428;2023-07-08T12:16:55;2.05;;;1.67;;
33690;SDS011;20026;50.058;18.428;2023-07-08T12:19:22;3.63;;;1.90;;
33690;SDS011;20026;50.058;18.428;2023-07-08T12:21:50;2.97;;;1.40;;
33690;SDS011;20026;50.058;18.428;2023-07-08T12:24:17;2.63;;;1.60;;
33690;SDS011;20026;50.058;18.428;2023-07-08T12:26:43;2.97;;;2.05;;
33690;SDS011;20026;50.058;18.428;2023-07-08T12:29:12;3.45;;;1.58;;
33690;SDS011;20026;50.058;18.428;2023-07-08T12:31:39;5.70;;;1.77;;
33690;SDS011;20026;50.058;18.428;2023-07-08T12:34:10;3.38;;;1.40;;
33690;SDS011;20026;50.058;18.428;2023-07-08T12:36:37;2.53;;;1.65;;
33690;SDS011;20026;50.058;18.428;2023-07-08T12:39:03;2.55;;;1.30;;
33690;SDS011;20026;50.058;18.428;2023-07-08T12:41:31;5.20;;;2.28;;
33690;SDS011;20026;50.058;18.428;2023-07-08T12:43:58;1.52;;;1.42;;
33690;SDS011;20026;50.058;18.428;2023-07-08T12:46:26;4.22;;;1.60;;
33690;SDS011;20026;50.058;18.428;2023-07-08T12:48:52;3.45;;;1.70;;
33690;SDS011;20026;50.058;18.428;2023-07-08T12:51:24;1.65;;;1.55;;
33690;SDS011;20026;50.058;18.428;2023-07-08T12:53:51;1.73;;;1.63;;
33690;SDS011;20026;50.058;18.428;2023-07-08T12:56:17;2.05;;;1.67;;
33690;SDS011;20026;50.058;18.428;2023-07-08T12:58:44;2.15;;;1.38;;
33690;SDS011;20026;50.058;18.428;2023-07-08T13:01:33;3.63;;;2.40;;
33690;SDS011;20026;50.058;18.428;2023-07-08T13:04:09;2.05;;;1.80;;
33690;SDS011;20026;50.058;18.428;2023-07-08T13:06:36;6.77;;;2.57;;
33690;SDS011;20026;50.058;18.428;2023-07-08T13:11:54;3.20;;;1.95;;
33690;SDS011;20026;50.058;18.428;2023-07-08T13:14:21;3.90;;;2.45;;
33690;SDS011;20026;50.058;18.428;2023-07-08T13:16:50;41.47;;;12.32;;
33690;SDS011;20026;50.058;18.428;2023-07-08T13:19:17;39.45;;;12.18;;
33690;SDS011;20026;50.058;18.428;2023-07-08T13:21:43;28.48;;;9.38;;
33690;SDS011;20026;50.058;18.428;2023-07-08T13:24:10;21.92;;;6.45;;
33690;SDS011;20026;50.058;18.428;2023-07-08T13:26:36;6.30;;;3.00;;
33690;SDS011;20026;50.058;18.428;2023-07-08T13:29:15;21.20;;;7.03;;
33690;SDS011;20026;50.058;18.428;2023-07-08T13:31:43;6.55;;;3.05;;
33690;SDS011;20026;50.058;18.428;2023-07-08T13:34:14;15.15;;;5.72;;
33690;SDS011;20026;50.058;18.428;2023-07-08T13:36:43;11.02;;;3.60;;
33690;SDS011;20026;50.058;18.428;2023-07-08T13:39:12;2.80;;;1.80;;
33690;SDS011;20026;50.058;18.428;2023-07-08T13:41:44;34.22;;;6.05;;
33690;SDS011;20026;50.058;18.428;2023-07-08T13:44:10;14.07;;;4.47;;
33690;SDS011;20026;50.058;18.428;2023-07-08T13:46:39;5.53;;;1.92;;
33690;SDS011;20026;50.058;18.428;2023-07-08T13:52:08;6.57;;;4.22;;
33690;SDS011;20026;50.058;18.428;2023-07-08T13:54:41;2.35;;;2.15;;
33690;SDS011;20026;50.058;18.428;2023-07-08T13:57:10;5.20;;;1.83;;
33690;SDS011;20026;50.058;18.428;2023-07-08T13:59:36;2.20;;;1.80;;
33690;SDS011;20026;50.058;18.428;2023-07-08T14:02:09;1.88;;;1.70;;
33690;SDS011;20026;50.058;18.428;2023-07-08T14:04:40;5.30;;;2.20;;
33690;SDS011;20026;50.058;18.428;2023-07-08T14:07:25;4.15;;;2.42;;
33690;SDS011;20026;50.058;18.428;2023-07-08T14:09:52;2.72;;;1.55;;
33690;SDS011;20026;50.058;18.428;2023-07-08T14:12:19;3.72;;;1.52;;
33690;SDS011;20026;50.058;18.428;2023-07-08T14:14:47;1.70;;;1.60;;
33690;SDS011;20026;50.058;18.428;2023-07-08T14:17:23;3.45;;;1.50;;
33690;SDS011;20026;50.058;18.428;2023-07-08T14:19:50;1.95;;;1.65;;
33690;SDS011;20026;50.058;18.428;2023-07-08T14:22:26;1.85;;;1.52;;
33690;SDS011;20026;50.058;18.428;2023-07-08T14:24:52;5.85;;;2.10;;
33690;SDS011;20026;50.058;18.428;2023-07-08T14:27:18;2.22;;;1.58;;
33690;SDS011;20026;50.058;18.428;2023-07-08T14:29:48;3.47;;;1.67;;
33690;SDS011;20026;50.058;18.428;2023-07-08T14:34:40;3.88;;;2.22;;
33690;SDS011;20026;50.058;18.428;2023-07-08T14:37:14;2.40;;;1.20;;
33690;SDS011;20026;50.058;18.428;2023-07-08T14:39:41;2.83;;;1.63;;
33690;SDS011;20026;50.058;18.428;2023-07-08T14:42:08;1.48;;;1.38;;
33690;SDS011;20026;50.058;18.428;2023-07-08T14:44:36;1.77;;;1.67;;
33690;SDS011;20026;50.058;18.428;2023-07-08T14:47:04;4.13;;;1.63;;
33690;SDS011;20026;50.058;18.428;2023-07-08T14:49:33;4.97;;;1.45;;
33690;SDS011;20026;50.058;18.428;2023-07-08T14:51:59;1.60;;;1.30;;
33690;SDS011;20026;50.058;18.428;2023-07-08T14:54:25;2.33;;;1.40;;
33690;SDS011;20026;50.058;18.428;2023-07-08T14:56:52;2.42;;;1.38;;
33690;SDS011;20026;50.058;18.428;2023-07-08T14:59:21;1.55;;;0.98;;
33690;SDS011;20026;50.058;18.428;2023-07-08T15:01:47;9.03;;;2.07;;
33690;SDS011;20026;50.058;18.428;2023-07-08T15:04:14;4.90;;;1.50;;
33690;SDS011;20026;50.058;18.428;2023-07-08T15:06:41;6.03;;;1.38;;
33690;SDS011;20026;50.058;18.428;2023-07-08T15:09:11;2.78;;;1.27;;
33690;SDS011;20026;50.058;18.428;2023-07-08T15:11:39;2.50;;;1.50;;
33690;SDS011;20026;50.058;18.428;2023-07-08T15:14:09;1.88;;;1.30;;
33690;SDS011;20026;50.058;18.428;2023-07-08T15:16:36;2.58;;;1.25;;
33690;SDS011;20026;50.058;18.428;2023-07-08T15:19:11;3.97;;;1.42;;
33690;SDS011;20026;50.058;18.428;2023-07-08T15:21:38;4.70;;;3.15;;
33690;SDS011;20026;50.058;18.428;2023-07-08T15:24:07;3.45;;;2.70;;
33690;SDS011;20026;50.058;18.428;2023-07-08T15:26:34;2.88;;;1.58;;
33690;SDS011;20026;50.058;18.428;2023-07-08T15:29:00;2.90;;;1.45;;
33690;SDS011;20026;50.058;18.428;2023-07-08T15:31:27;1.52;;;1.30;;